createdAt,value
2018-08-25T00:00:25.377Z,10.10
2018-08-25T00:03:00.963Z,10.00
2018-08-25T00:05:36.380Z,9.80
2018-08-25T00:08:11.796Z,10.03
2018-08-25T00:10:47.360Z,9.60
2018-08-25T00:13:23.183Z,9.60
2018-08-25T00:15:59.193Z,8.88
2018-08-25T00:18:34.636Z,9.57
2018-08-25T00:21:10.359Z,9.70
2018-08-25T00:23:45.864Z,8.90
2018-08-25T00:26:21.375Z,9.30
2018-08-25T00:28:57.200Z,9.60
2018-08-25T00:34:30.949Z,9.60
2018-08-25T00:37:06.875Z,9.48
2018-08-25T00:39:42.630Z,9.63
2018-08-25T00:42:18.204Z,9.07
2018-08-25T00:44:53.794Z,9.33
2018-08-25T00:47:29.953Z,9.73
2018-08-25T00:50:06.375Z,8.88
2018-08-25T00:52:42.044Z,8.65
2018-08-25T00:55:19.395Z,9.23
2018-08-25T00:57:55.009Z,8.33
2018-08-25T01:00:30.863Z,8.97
2018-08-25T01:03:06.658Z,7.97
2018-08-25T01:05:42.327Z,8.90
2018-08-25T01:08:17.885Z,8.80
2018-08-25T01:10:53.778Z,8.57
2018-08-25T01:13:30.213Z,13.63
2018-08-25T01:16:06.097Z,11.57
2018-08-25T01:18:41.848Z,12.80
2018-08-25T01:21:17.787Z,9.88
2018-08-25T01:23:53.621Z,9.20
2018-08-25T01:26:30.217Z,10.45
2018-08-25T01:29:06.062Z,10.33
2018-08-25T01:31:41.555Z,9.88
2018-08-25T01:34:17.489Z,9.20
2018-08-25T01:36:53.211Z,10.80
2018-08-25T01:39:28.854Z,11.53
2018-08-25T01:42:04.649Z,11.00
2018-08-25T01:44:40.426Z,12.07
2018-08-25T01:47:16.038Z,12.43
2018-08-25T01:49:51.599Z,13.03
2018-08-25T01:52:27.396Z,16.60
2018-08-25T01:55:03.031Z,15.30
2018-08-25T01:57:38.613Z,31.20
2018-08-25T02:00:14.451Z,19.87
2018-08-25T02:02:50.268Z,18.80
2018-08-25T02:05:28.026Z,20.12
2018-08-25T02:08:07.228Z,20.27
2018-08-25T02:10:43.010Z,20.50
2018-08-25T02:13:18.539Z,19.77
2018-08-25T02:15:54.350Z,22.20
2018-08-25T02:18:30.260Z,22.58
2018-08-25T02:21:06.645Z,20.90
2018-08-25T02:23:42.408Z,21.48
2018-08-25T02:26:18.351Z,19.60
2018-08-25T02:28:53.992Z,22.20
2018-08-25T02:31:29.614Z,17.30
2018-08-25T02:34:05.604Z,15.90
2018-08-25T02:36:41.464Z,18.70
2018-08-25T02:39:17.248Z,17.00
2018-08-25T02:41:53.186Z,16.20
2018-08-25T02:44:29.910Z,15.30
2018-08-25T02:47:06.009Z,14.93
2018-08-25T02:49:41.955Z,16.10
2018-08-25T02:52:17.818Z,14.40
2018-08-25T02:54:53.488Z,15.00
2018-08-25T02:57:29.432Z,11.53
2018-08-25T03:00:05.229Z,14.60
2018-08-25T03:02:41.254Z,15.80
2018-08-25T03:05:17.236Z,11.53
2018-08-25T03:07:53.162Z,16.32
2018-08-25T03:10:29.025Z,11.73
2018-08-25T03:13:04.691Z,11.90
2018-08-25T03:15:40.406Z,12.03
2018-08-25T03:18:15.965Z,10.33
2018-08-25T03:20:51.577Z,10.15
2018-08-25T03:23:26.975Z,11.93
2018-08-25T03:26:02.900Z,10.93
2018-08-25T03:28:38.255Z,7.30
2018-08-25T03:31:14.080Z,10.50
2018-08-25T03:33:49.991Z,10.05
2018-08-25T03:36:25.557Z,13.70
2018-08-25T03:39:01.428Z,12.10
2018-08-25T03:41:37.046Z,9.03
2018-08-25T03:44:13.707Z,7.70
2018-08-25T03:46:49.438Z,9.23
2018-08-25T03:49:25.042Z,8.23
2018-08-25T03:52:01.022Z,6.53
2018-08-25T03:54:36.512Z,10.25
2018-08-25T03:57:12.261Z,14.37
2018-08-25T03:59:48.108Z,12.77
2018-08-25T04:02:23.845Z,10.08
2018-08-25T04:04:59.393Z,11.40
2018-08-25T04:07:35.267Z,8.63
2018-08-25T04:10:11.258Z,11.97
2018-08-25T04:12:46.830Z,10.50
2018-08-25T04:15:22.615Z,11.03
2018-08-25T04:17:58.219Z,10.83
2018-08-25T04:20:33.996Z,9.30
2018-08-25T04:23:09.551Z,9.05
2018-08-25T04:25:45.298Z,9.97
2018-08-25T04:28:20.897Z,8.47
2018-08-25T04:30:57.271Z,9.98
2018-08-25T04:33:33.009Z,7.20
2018-08-25T04:36:08.464Z,9.30
2018-08-25T04:38:44.132Z,7.27
2018-08-25T04:41:19.830Z,7.30
2018-08-25T04:43:55.457Z,6.50
2018-08-25T04:46:31.106Z,6.17
2018-08-25T04:49:06.479Z,5.57
2018-08-25T04:51:42.473Z,5.43
2018-08-25T04:54:18.437Z,4.93
2018-08-25T04:56:54.279Z,7.00
2018-08-25T04:59:30.293Z,6.80
2018-08-25T05:02:05.731Z,5.67
2018-08-25T05:04:41.261Z,4.30
2018-08-25T05:07:17.295Z,3.65
2018-08-25T05:09:52.783Z,5.90
2018-08-25T05:12:28.750Z,4.95
2018-08-25T05:15:04.206Z,4.10
2018-08-25T05:19:04.494Z,3.98
2018-08-25T05:21:40.170Z,4.30
2018-08-25T05:24:15.482Z,4.10
2018-08-25T05:26:51.202Z,3.50
2018-08-25T05:29:26.501Z,2.90
2018-08-25T05:32:02.312Z,3.85
2018-08-25T05:34:38.083Z,3.10
2018-08-25T05:37:13.751Z,3.62
2018-08-25T05:39:49.520Z,5.25
2018-08-25T05:42:24.993Z,5.53
2018-08-25T05:45:00.473Z,3.50
2018-08-25T05:47:36.320Z,5.65
2018-08-25T05:50:12.066Z,3.42
2018-08-25T05:52:47.884Z,5.15
2018-08-25T05:55:23.551Z,4.63
2018-08-25T05:57:58.912Z,4.57
2018-08-25T06:00:34.685Z,4.90
2018-08-25T06:03:10.511Z,3.37
2018-08-25T06:05:46.025Z,2.70
2018-08-25T06:08:21.484Z,5.35
2018-08-25T06:10:56.777Z,3.50
2018-08-25T06:13:32.634Z,4.73
2018-08-25T06:16:09.026Z,2.57
2018-08-25T06:18:44.737Z,3.58
2018-08-25T06:21:20.437Z,3.33
2018-08-25T06:23:56.022Z,4.07
2018-08-25T06:26:32.332Z,2.22
2018-08-25T06:29:08.496Z,2.27
2018-08-25T06:31:44.164Z,3.20
2018-08-25T06:34:20.041Z,4.10
2018-08-25T06:39:29.285Z,3.60
2018-08-25T06:42:05.523Z,3.70
2018-08-25T06:44:42.784Z,3.20
2018-08-25T06:47:18.320Z,3.30
2018-08-25T06:49:54.146Z,3.35
2018-08-25T06:52:29.689Z,4.58
2018-08-25T06:55:05.341Z,3.23
2018-08-25T06:57:40.726Z,3.20
2018-08-25T07:00:16.476Z,4.45
2018-08-25T07:02:52.254Z,2.30
2018-08-25T07:05:27.989Z,2.97
2018-08-25T07:08:03.723Z,2.40
2018-08-25T07:10:39.364Z,2.72
2018-08-25T07:13:15.030Z,3.00
2018-08-25T07:15:50.575Z,8.70
2018-08-25T07:18:26.013Z,10.17
2018-08-25T07:21:01.732Z,9.03
2018-08-25T07:23:37.515Z,9.40
2018-08-25T07:26:12.872Z,8.30
2018-08-25T07:28:48.350Z,8.10
2018-08-25T07:31:24.162Z,7.90
2018-08-25T07:33:59.756Z,7.40
2018-08-25T07:36:35.461Z,6.90
2018-08-25T07:39:15.657Z,7.10
2018-08-25T07:41:51.344Z,7.23
2018-08-25T07:44:27.019Z,6.20
2018-08-25T07:47:02.347Z,7.27
2018-08-25T07:49:38.187Z,7.67
2018-08-25T07:55:06.242Z,7.40
2018-08-25T07:57:42.140Z,7.47
2018-08-25T08:00:18.038Z,7.10
2018-08-25T08:02:53.915Z,7.92
2018-08-25T08:05:29.374Z,6.90
2018-08-25T08:08:05.333Z,7.20
2018-08-25T08:10:41.329Z,8.50
2018-08-25T08:13:16.974Z,7.12
2018-08-25T08:15:52.567Z,7.25
2018-08-25T08:18:28.005Z,6.77
2018-08-25T08:21:04.474Z,8.70
2018-08-25T08:23:40.088Z,7.40
2018-08-25T08:26:15.728Z,7.55
2018-08-25T08:28:51.361Z,5.35
2018-08-25T08:31:26.928Z,6.60
2018-08-25T08:34:02.687Z,6.78
2018-08-25T08:36:38.370Z,5.60
2018-08-25T08:39:15.390Z,6.20
2018-08-25T08:41:51.018Z,6.23
2018-08-25T08:44:26.386Z,6.50
2018-08-25T08:47:02.214Z,7.30
2018-08-25T08:49:46.594Z,7.78
2018-08-25T08:52:14.364Z,6.87
2018-08-25T08:54:50.266Z,6.80
2018-08-25T08:57:26.268Z,5.47
2018-08-25T09:00:02.185Z,5.58
2018-08-25T09:02:37.553Z,6.10
2018-08-25T09:05:13.724Z,6.05
2018-08-25T09:07:49.551Z,6.22
2018-08-25T09:10:25.230Z,6.90
2018-08-25T09:13:01.812Z,5.57
2018-08-25T09:15:38.292Z,5.00
2018-08-25T09:18:14.414Z,5.17
2018-08-25T09:20:50.167Z,5.50
2018-08-25T09:23:26.214Z,6.13
2018-08-25T09:28:35.801Z,5.10
2018-08-25T09:31:12.045Z,7.17
2018-08-25T09:33:47.999Z,5.63
2018-08-25T09:36:24.293Z,5.83
2018-08-25T09:39:01.092Z,5.30
2018-08-25T09:41:36.855Z,5.30
2018-08-25T09:44:13.161Z,6.90
2018-08-25T09:46:49.224Z,6.45
2018-08-25T09:49:24.816Z,6.17
2018-08-25T09:52:00.413Z,6.90
2018-08-25T09:54:36.081Z,6.67
2018-08-25T09:57:12.301Z,6.97
2018-08-25T09:59:48.296Z,6.12
2018-08-25T10:02:24.226Z,8.20
2018-08-25T10:05:00.001Z,5.53
2018-08-25T10:07:36.403Z,5.42
2018-08-25T10:10:12.317Z,5.33
2018-08-25T10:12:48.103Z,5.20
2018-08-25T10:17:19.028Z,5.28
2018-08-25T10:19:54.807Z,4.30
2018-08-25T10:22:30.420Z,5.20
2018-08-25T10:25:06.197Z,4.90
2018-08-25T10:27:41.853Z,4.33
2018-08-25T10:30:17.405Z,5.70
2018-08-25T10:32:53.397Z,5.73
2018-08-25T10:35:28.728Z,5.13
2018-08-25T10:38:04.525Z,6.37
2018-08-25T10:40:40.190Z,4.80
2018-08-25T10:43:15.703Z,6.03
2018-08-25T10:45:51.457Z,6.43
2018-08-25T10:48:26.844Z,6.20
2018-08-25T10:51:02.470Z,6.90
2018-08-25T10:53:38.397Z,5.97
2018-08-25T10:57:52.025Z,7.83
2018-08-25T11:00:27.749Z,6.55
2018-08-25T11:03:03.692Z,7.67
2018-08-25T11:05:39.503Z,6.37
2018-08-25T11:09:15.420Z,7.20
2018-08-25T11:11:51.073Z,6.07
2018-08-25T11:14:27.126Z,7.47
2018-08-25T11:17:02.645Z,6.73
2018-08-25T11:19:38.253Z,5.15
2018-08-25T11:22:13.914Z,4.93
2018-08-25T11:24:49.226Z,6.23
2018-08-25T11:27:25.220Z,6.28
2018-08-25T11:30:40.168Z,6.20
2018-08-25T11:33:16.264Z,8.08
2018-08-25T11:35:52.362Z,6.10
2018-08-25T11:38:27.713Z,6.55
2018-08-25T11:41:03.329Z,6.77
2018-08-25T11:45:28.670Z,5.83
2018-08-25T11:48:04.146Z,5.73
2018-08-25T11:50:39.710Z,5.15
2018-08-25T11:53:15.129Z,6.57
2018-08-25T11:55:50.859Z,6.17
2018-08-25T11:58:26.622Z,5.50
2018-08-25T12:02:16.568Z,6.47
2018-08-25T12:04:52.634Z,7.30
2018-08-25T12:07:28.826Z,6.13
2018-08-25T12:10:04.376Z,6.73
2018-08-25T12:12:39.724Z,6.37
2018-08-25T12:15:15.499Z,6.70
2018-08-25T12:17:51.175Z,6.22
2018-08-25T12:20:27.486Z,7.55
2018-08-25T12:23:03.198Z,6.40
2018-08-25T12:25:39.449Z,6.47
2018-08-25T12:28:15.101Z,7.03
2018-08-25T12:30:50.652Z,7.22
2018-08-25T12:33:26.787Z,7.50
2018-08-25T12:36:02.441Z,6.95
2018-08-25T12:38:38.636Z,8.20
2018-08-25T12:41:14.622Z,7.40
2018-08-25T12:43:50.278Z,8.20
2018-08-25T12:46:26.346Z,7.95
2018-08-25T12:49:02.245Z,7.60
2018-08-25T12:51:38.363Z,8.18
2018-08-25T12:54:14.274Z,7.28
2018-08-25T12:56:49.681Z,7.10
2018-08-25T12:59:25.235Z,6.53
2018-08-25T13:05:45.640Z,5.40
2018-08-25T13:10:20.780Z,8.43
2018-08-25T13:12:56.491Z,6.60
2018-08-25T13:15:32.301Z,7.25
2018-08-25T13:18:08.293Z,8.80
2018-08-25T13:20:44.104Z,8.50
2018-08-25T13:23:20.145Z,8.15
2018-08-25T13:25:55.639Z,7.13
2018-08-25T13:28:31.658Z,7.07
2018-08-25T13:31:07.378Z,9.80
2018-08-25T13:33:43.260Z,11.03
2018-08-25T13:36:18.907Z,9.15
2018-08-25T13:38:54.469Z,8.23
2018-08-25T13:41:30.732Z,9.73
2018-08-25T13:44:06.290Z,7.27
2018-08-25T13:46:42.259Z,7.25
2018-08-25T13:49:18.645Z,9.10
2018-08-25T13:51:54.668Z,12.00
2018-08-25T13:54:30.098Z,8.60
2018-08-25T13:57:05.856Z,8.30
2018-08-25T13:59:41.918Z,10.18
2018-08-25T14:02:17.597Z,11.27
2018-08-25T14:04:53.483Z,8.68
2018-08-25T14:07:28.907Z,9.20
2018-08-25T14:10:04.632Z,10.45
2018-08-25T14:12:40.162Z,8.60
2018-08-25T14:15:15.488Z,10.03
2018-08-25T14:17:51.520Z,8.87
2018-08-25T14:20:27.483Z,9.10
2018-08-25T14:23:03.480Z,10.37
2018-08-25T14:27:28.456Z,7.05
2018-08-25T14:30:04.507Z,5.73
2018-08-25T14:32:40.252Z,8.23
2018-08-25T14:35:16.449Z,6.75
2018-08-25T14:37:52.525Z,6.13
2018-08-25T14:40:57.387Z,6.40
2018-08-25T14:43:32.804Z,6.93
2018-08-25T14:46:08.520Z,6.10
2018-08-25T14:48:44.610Z,6.37
2018-08-25T14:51:21.362Z,5.10
2018-08-25T14:56:53.475Z,6.92
2018-08-25T14:59:28.968Z,8.20
2018-08-25T15:02:04.955Z,6.83
2018-08-25T15:04:40.411Z,5.73
2018-08-25T15:07:16.240Z,4.83
2018-08-25T15:09:51.880Z,8.68
2018-08-25T15:12:27.771Z,7.12
2018-08-25T15:15:03.297Z,7.90
2018-08-25T15:17:38.750Z,7.40
2018-08-25T15:21:26.723Z,7.00
2018-08-25T15:24:02.531Z,6.40
2018-08-25T15:26:39.354Z,7.87
2018-08-25T15:29:15.160Z,6.12
2018-08-25T15:31:50.632Z,7.37
2018-08-25T15:34:26.199Z,7.13
2018-08-25T15:38:44.326Z,6.80
2018-08-25T15:41:20.634Z,8.68
2018-08-25T15:43:56.312Z,9.50
2018-08-25T15:46:32.212Z,12.13
2018-08-25T15:49:07.975Z,14.38
2018-08-25T15:51:44.302Z,14.80
2018-08-25T15:54:20.514Z,11.15
2018-08-25T15:56:56.495Z,10.50
2018-08-25T15:59:31.746Z,13.70
2018-08-25T16:02:07.329Z,9.83
2018-08-25T16:04:43.190Z,10.05
2018-08-25T16:07:19.980Z,13.25
2018-08-25T16:09:56.152Z,13.53
2018-08-25T16:12:32.049Z,11.87
2018-08-25T16:15:07.749Z,13.00
2018-08-25T16:17:43.366Z,11.30
2018-08-25T16:20:19.172Z,13.25
2018-08-25T16:22:55.164Z,12.60
2018-08-25T16:25:31.104Z,11.68
2018-08-25T16:28:06.888Z,10.48
2018-08-25T16:30:42.305Z,12.13
2018-08-25T16:33:17.974Z,10.45
2018-08-25T16:35:53.729Z,10.57
2018-08-25T16:38:29.712Z,11.68
2018-08-25T16:41:05.514Z,9.83
2018-08-25T16:43:40.888Z,8.70
2018-08-25T16:46:16.321Z,10.80
2018-08-25T16:48:52.217Z,10.58
2018-08-25T16:51:28.300Z,10.37
2018-08-25T16:54:03.903Z,8.90
2018-08-25T16:56:39.573Z,8.05
2018-08-25T16:59:15.270Z,9.13
2018-08-25T17:01:51.540Z,9.03
2018-08-25T17:04:27.209Z,7.90
2018-08-25T17:07:02.716Z,7.90
2018-08-25T17:09:39.392Z,8.50
2018-08-25T17:12:15.208Z,8.43
2018-08-25T17:14:50.965Z,7.83
2018-08-25T17:17:26.772Z,9.27
2018-08-25T17:20:02.271Z,6.70
2018-08-25T17:22:37.781Z,7.47
2018-08-25T17:25:13.297Z,6.60
2018-08-25T17:27:48.676Z,6.50
2018-08-25T17:30:24.208Z,6.20
2018-08-25T17:33:00.005Z,6.60
2018-08-25T17:35:35.763Z,5.90
2018-08-25T17:38:11.768Z,5.30
2018-08-25T17:40:47.670Z,6.00
2018-08-25T17:43:23.532Z,6.40
2018-08-25T17:45:59.425Z,6.00
2018-08-25T17:48:34.995Z,5.90
2018-08-25T17:56:39.862Z,6.45
2018-08-25T17:59:15.560Z,6.78
2018-08-25T18:01:51.243Z,7.60
2018-08-25T18:04:27.032Z,7.83
2018-08-25T18:07:02.959Z,6.87
2018-08-25T18:09:38.562Z,8.33
2018-08-25T18:12:14.552Z,7.03
2018-08-25T18:15:53.564Z,5.70
2018-08-25T18:18:29.017Z,6.65
2018-08-25T18:21:04.535Z,8.70
2018-08-25T18:24:34.325Z,6.30
2018-08-25T18:27:10.256Z,10.38
2018-08-25T18:29:45.605Z,8.20
2018-08-25T18:32:21.842Z,11.38
2018-08-25T18:34:57.297Z,10.57
2018-08-25T18:37:32.772Z,10.55
2018-08-25T18:40:08.480Z,7.20
2018-08-25T18:44:20.585Z,7.90
2018-08-25T18:46:56.209Z,10.85
2018-08-25T18:52:05.496Z,10.03
2018-08-25T18:54:41.567Z,11.78
2018-08-25T18:57:17.773Z,14.30
2018-08-25T18:59:53.487Z,13.10
2018-08-25T19:02:29.573Z,8.93
2018-08-25T19:05:05.430Z,7.20
2018-08-25T19:07:41.372Z,6.60
2018-08-25T19:10:16.980Z,7.20
2018-08-25T19:12:52.791Z,8.10
2018-08-25T19:15:28.554Z,8.60
2018-08-25T19:18:04.531Z,9.08
2018-08-25T19:20:40.555Z,8.35
2018-08-25T19:23:16.780Z,9.85
2018-08-25T19:25:52.556Z,9.73
2018-08-25T19:28:28.750Z,9.83
2018-08-25T19:31:05.368Z,9.90
2018-08-25T19:33:41.578Z,9.73
2018-08-25T19:36:17.784Z,9.05
2018-08-25T19:38:53.595Z,9.20
2018-08-25T19:41:30.784Z,8.70
2018-08-25T19:44:07.938Z,9.50
2018-08-25T19:46:44.936Z,8.20
2018-08-25T19:49:22.218Z,8.70
2018-08-25T19:52:00.716Z,8.28
2018-08-25T19:54:38.186Z,8.83
2018-08-25T19:57:15.874Z,7.55
2018-08-25T19:59:52.941Z,8.50
2018-08-25T20:02:30.806Z,8.20
2018-08-25T20:05:08.131Z,8.90
2018-08-25T20:07:46.800Z,8.30
2018-08-25T20:10:24.235Z,7.47
2018-08-25T20:13:01.936Z,7.60
2018-08-25T20:15:39.622Z,7.30
2018-08-25T20:18:17.180Z,8.10
2018-08-25T20:20:55.069Z,7.78
2018-08-25T20:23:32.333Z,8.13
2018-08-25T20:26:09.386Z,7.80
2018-08-25T20:28:46.776Z,7.83
2018-08-25T20:31:23.814Z,7.40
2018-08-25T20:34:00.731Z,7.55
2018-08-25T20:36:37.616Z,7.67
2018-08-25T20:39:15.226Z,7.58
2018-08-25T20:41:52.966Z,7.80
2018-08-25T20:44:30.485Z,7.53
2018-08-25T20:47:08.028Z,7.30
2018-08-25T20:49:45.625Z,6.87
2018-08-25T20:52:23.526Z,6.60
2018-08-25T20:55:00.956Z,7.07
2018-08-25T20:57:38.797Z,7.10
2018-08-25T21:00:16.194Z,6.65
2018-08-25T21:02:53.570Z,6.83
2018-08-25T21:05:30.624Z,6.40
2018-08-25T21:08:07.956Z,6.65
2018-08-25T21:10:45.016Z,6.80
2018-08-25T21:13:22.384Z,5.80
2018-08-25T21:16:01.512Z,6.12
2018-08-25T21:18:39.420Z,8.77
2018-08-25T21:21:17.960Z,8.98
2018-08-25T21:23:55.354Z,8.53
2018-08-25T21:26:33.066Z,9.10
2018-08-25T21:29:10.384Z,9.68
2018-08-25T21:31:46.866Z,9.90
2018-08-25T21:34:22.974Z,10.43
2018-08-25T21:36:59.110Z,15.63
2018-08-25T21:39:35.589Z,26.45
2018-08-25T21:42:11.973Z,14.47
2018-08-25T21:44:48.304Z,14.07
2018-08-25T21:47:24.487Z,9.50
2018-08-25T21:50:00.651Z,10.15
2018-08-25T21:52:36.644Z,11.03
2018-08-25T21:55:12.763Z,8.45
2018-08-25T21:57:48.824Z,8.75
2018-08-25T22:00:24.875Z,8.83
2018-08-25T22:03:01.318Z,10.73
2018-08-25T22:05:37.873Z,7.67
2018-08-25T22:08:14.665Z,7.67
2018-08-25T22:10:50.654Z,5.70
2018-08-25T22:13:27.119Z,7.12
2018-08-25T22:16:03.296Z,5.30
2018-08-25T22:18:39.833Z,9.13
2018-08-25T22:21:15.973Z,7.40
2018-08-25T22:23:52.503Z,7.60
2018-08-25T22:26:29.206Z,7.12
2018-08-25T22:29:05.628Z,6.15
2018-08-25T22:31:41.652Z,5.55
2018-08-25T22:34:18.881Z,4.80
2018-08-25T22:36:54.679Z,5.40
2018-08-25T22:39:30.853Z,5.42
2018-08-25T22:42:07.083Z,7.43
2018-08-25T22:44:43.432Z,6.62
2018-08-25T22:47:19.449Z,6.80
2018-08-25T22:49:55.445Z,5.97
2018-08-25T22:52:35.774Z,5.33
2018-08-25T22:55:11.782Z,5.83
2018-08-25T22:57:47.661Z,6.40
2018-08-25T23:00:24.439Z,4.28
2018-08-25T23:03:00.852Z,5.25
2018-08-25T23:05:36.849Z,6.08
2018-08-25T23:08:13.036Z,6.75
2018-08-25T23:10:49.318Z,6.47
2018-08-25T23:13:25.528Z,5.20
2018-08-25T23:16:01.869Z,6.15
2018-08-25T23:18:37.999Z,3.63
2018-08-25T23:21:14.083Z,5.90
2018-08-25T23:23:50.551Z,6.30
2018-08-25T23:26:26.524Z,4.28
2018-08-25T23:29:02.860Z,4.42
2018-08-25T23:31:38.877Z,5.00
2018-08-25T23:34:14.893Z,4.40
2018-08-25T23:36:50.895Z,5.92
2018-08-25T23:39:26.853Z,5.80
2018-08-25T23:42:02.896Z,4.55
2018-08-25T23:44:39.430Z,5.20
2018-08-25T23:47:15.658Z,2.92
2018-08-25T23:49:57.306Z,5.28
2018-08-25T23:52:39.376Z,5.10
2018-08-25T23:55:15.677Z,5.40
2018-08-25T23:57:51.744Z,7.87
